Myrtle Grove, Louisiana
Current Conditions -  °F | °C
As of 5:55 PM on Saturday 20 Dec 2014 (Local Time) from KNBG Reporting Station
Overcast Overcast  
Wind Chill: 53°   Ceiling: 1400
Heat Index: 53°   Visibility: 10mi
Dew Point: 49°   Wind: 8mph
Humidity: 86%   Direction: 20°NNE
Pressure: 30.12"   Gusts: NA
Location:  29.4927°N, 89.8165°W
Report Text: KNBG 202355Z 02007KT 10SM OVC014 12/09 A3012 RMK AO2 SLP198 T01170094 10133 20117 51009 $
Loading
Personal Weather Stations






























Interactive Weather Map New forecast layout! Learn more

10-Day Weather Forecast

Advertisements
Track Severe Weather on mobile